createdAt,value
2018-08-25T00:01:18.623Z,76.16
2018-08-25T00:03:47.216Z,76.74
2018-08-25T00:06:15.867Z,76.54
2018-08-25T00:08:44.474Z,76.33
2018-08-25T00:11:13.061Z,77.11
2018-08-25T00:13:41.580Z,77.21
2018-08-25T00:16:10.241Z,77.76
2018-08-25T00:18:38.783Z,77.57
2018-08-25T00:21:07.338Z,76.90
2018-08-25T00:23:35.917Z,77.10
2018-08-25T00:26:04.552Z,76.95
2018-08-25T00:28:33.084Z,77.26
2018-08-25T00:31:06.710Z,77.64
2018-08-25T00:33:35.288Z,77.33
2018-08-25T00:36:03.865Z,77.32
2018-08-25T00:38:32.430Z,77.79
2018-08-25T00:41:00.959Z,77.64
2018-08-25T00:43:29.599Z,77.76
2018-08-25T00:45:58.196Z,77.94
2018-08-25T00:48:26.769Z,77.28
2018-08-25T00:50:55.340Z,77.84
2018-08-25T00:53:23.916Z,77.71
2018-08-25T00:55:52.502Z,77.45
2018-08-25T00:58:21.079Z,78.15
2018-08-25T01:00:49.703Z,77.87
2018-08-25T01:03:18.388Z,78.01
2018-08-25T01:05:47.071Z,78.17
2018-08-25T01:08:15.709Z,78.25
2018-08-25T01:10:44.298Z,76.95
2018-08-25T01:13:12.917Z,77.44
2018-08-25T01:15:41.493Z,77.59
2018-08-25T01:18:10.942Z,78.12
2018-08-25T01:20:39.490Z,78.63
2018-08-25T01:23:08.058Z,78.20
2018-08-25T01:25:36.607Z,77.63
2018-08-25T01:28:05.257Z,78.35
2018-08-25T01:30:33.792Z,78.23
2018-08-25T01:33:02.340Z,78.18
2018-08-25T01:35:30.904Z,77.90
2018-08-25T01:37:59.450Z,78.55
2018-08-25T01:40:28.013Z,78.89
2018-08-25T01:42:56.572Z,78.49
2018-08-25T01:45:25.153Z,78.55
2018-08-25T01:47:53.709Z,78.07
2018-08-25T01:50:22.409Z,78.14
2018-08-25T01:52:50.976Z,78.18
2018-08-25T01:55:19.624Z,78.18
2018-08-25T01:57:48.199Z,78.18
2018-08-25T02:00:16.767Z,77.88
2018-08-25T02:02:45.376Z,77.40
2018-08-25T02:05:13.961Z,77.20
2018-08-25T02:07:42.614Z,77.09
2018-08-25T02:10:11.177Z,77.41
2018-08-25T02:12:39.812Z,77.35
2018-08-25T02:15:08.407Z,77.48
2018-08-25T02:17:36.980Z,77.67
2018-08-25T02:20:06.077Z,77.56
2018-08-25T02:22:34.659Z,76.37
2018-08-25T02:25:03.308Z,76.49
2018-08-25T02:27:31.876Z,76.94
2018-08-25T02:30:00.624Z,77.78
2018-08-25T02:32:29.177Z,77.12
2018-08-25T02:34:57.764Z,76.81
2018-08-25T02:37:26.301Z,77.62
2018-08-25T02:39:54.857Z,78.20
2018-08-25T02:42:23.431Z,78.23
2018-08-25T02:44:52.022Z,76.61
2018-08-25T02:47:20.629Z,76.32
2018-08-25T02:49:49.189Z,75.51
2018-08-25T02:52:17.781Z,74.97
2018-08-25T02:54:46.370Z,75.87
2018-08-25T02:57:14.922Z,76.06
2018-08-25T02:59:43.471Z,75.45
2018-08-25T03:02:12.049Z,75.21
2018-08-25T03:04:40.600Z,73.97
2018-08-25T03:07:09.176Z,73.49
2018-08-25T03:09:37.743Z,74.59
2018-08-25T03:12:06.304Z,74.47
2018-08-25T03:14:34.900Z,74.01
2018-08-25T03:17:03.558Z,75.03
2018-08-25T03:19:32.223Z,75.53
2018-08-25T03:22:00.868Z,75.84
2018-08-25T03:24:29.492Z,76.46
2018-08-25T03:26:58.135Z,76.49
2018-08-25T03:29:26.792Z,76.99
2018-08-25T03:31:55.376Z,76.39
2018-08-25T03:34:23.967Z,74.49
2018-08-25T03:36:52.695Z,75.25
2018-08-25T03:39:21.286Z,73.42
2018-08-25T03:41:49.833Z,74.19
2018-08-25T03:44:19.202Z,73.90
2018-08-25T03:46:47.776Z,73.76
2018-08-25T03:49:16.324Z,73.91
2018-08-25T03:51:44.889Z,74.41
2018-08-25T03:54:13.413Z,74.98
2018-08-25T03:56:41.987Z,75.87
2018-08-25T03:59:10.532Z,76.30
2018-08-25T04:01:39.303Z,76.30
2018-08-25T04:04:07.827Z,76.14
2018-08-25T04:06:36.377Z,75.10
2018-08-25T04:09:07.768Z,75.04
2018-08-25T04:11:36.320Z,74.05
2018-08-25T04:14:04.883Z,72.78
2018-08-25T04:16:33.449Z,73.03
2018-08-25T04:19:02.116Z,72.74
2018-08-25T04:21:30.678Z,73.26
2018-08-25T04:23:59.375Z,72.50
2018-08-25T04:26:27.912Z,74.28
2018-08-25T04:28:56.652Z,74.31
2018-08-25T04:31:25.255Z,74.19
2018-08-25T04:33:53.826Z,75.35
2018-08-25T04:36:22.365Z,75.14
2018-08-25T04:38:50.921Z,75.83
2018-08-25T04:41:19.531Z,76.30
2018-08-25T04:43:48.089Z,76.13
2018-08-25T04:46:16.633Z,75.80
2018-08-25T04:48:45.281Z,75.95
2018-08-25T04:51:13.928Z,75.13
2018-08-25T04:53:42.621Z,75.35
2018-08-25T04:56:11.297Z,76.42
2018-08-25T04:58:39.920Z,76.27
2018-08-25T05:01:08.481Z,75.12
2018-08-25T05:03:37.019Z,76.39
2018-08-25T05:06:05.642Z,76.35
2018-08-25T05:08:34.229Z,75.89
2018-08-25T05:11:02.792Z,75.95
2018-08-25T05:13:31.348Z,75.07
2018-08-25T05:15:59.893Z,75.08
2018-08-25T05:18:28.532Z,74.73
2018-08-25T05:20:57.922Z,75.15
2018-08-25T05:23:26.478Z,75.72
2018-08-25T05:25:55.060Z,75.02
2018-08-25T05:28:23.620Z,74.52
2018-08-25T05:30:52.156Z,74.29
2018-08-25T05:33:20.811Z,74.21
2018-08-25T05:35:49.350Z,73.93
2018-08-25T05:38:18.011Z,73.27
2018-08-25T05:40:46.564Z,73.22
2018-08-25T05:43:15.095Z,70.14
2018-08-25T05:45:43.677Z,69.56
2018-08-25T05:48:12.246Z,69.25
2018-08-25T05:50:40.804Z,68.81
2018-08-25T05:53:09.356Z,67.95
2018-08-25T05:55:37.936Z,67.67
2018-08-25T05:58:06.503Z,66.90
2018-08-25T06:00:35.083Z,67.20
2018-08-25T06:03:03.639Z,68.70
2018-08-25T06:05:32.196Z,67.78
2018-08-25T06:08:00.755Z,67.34
2018-08-25T06:10:29.294Z,67.27
2018-08-25T06:12:57.832Z,67.62
2018-08-25T06:15:26.396Z,67.21
2018-08-25T06:17:54.973Z,68.26
2018-08-25T06:20:23.534Z,68.91
2018-08-25T06:22:52.077Z,68.18
2018-08-25T06:25:20.645Z,68.56
2018-08-25T06:27:49.221Z,68.84
2018-08-25T06:30:17.840Z,66.92
2018-08-25T06:32:46.340Z,67.46
2018-08-25T06:35:14.954Z,66.33
2018-08-25T06:37:43.504Z,64.95
2018-08-25T06:40:12.052Z,65.67
2018-08-25T06:42:40.738Z,65.03
2018-08-25T06:45:09.204Z,64.39
2018-08-25T06:47:37.764Z,64.72
2018-08-25T06:50:06.465Z,64.10
2018-08-25T06:52:35.065Z,64.77
2018-08-25T06:55:03.657Z,63.88
2018-08-25T06:57:32.573Z,63.86
2018-08-25T07:00:01.155Z,64.58
2018-08-25T07:02:29.720Z,64.34
2018-08-25T07:04:58.303Z,64.78
2018-08-25T07:07:26.860Z,65.76
2018-08-25T07:09:55.419Z,64.79
2018-08-25T07:12:23.992Z,65.25
2018-08-25T07:14:52.600Z,65.32
2018-08-25T07:20:48.667Z,65.66
2018-08-25T07:23:17.212Z,65.26
2018-08-25T07:25:45.767Z,65.04
2018-08-25T07:28:14.354Z,65.55
2018-08-25T07:30:42.933Z,66.29
2018-08-25T07:33:11.484Z,66.33
2018-08-25T07:35:40.048Z,65.95
2018-08-25T07:38:08.645Z,66.30
2018-08-25T07:40:37.172Z,66.12
2018-08-25T07:43:06.101Z,65.35
2018-08-25T07:45:35.517Z,65.85
2018-08-25T07:48:04.144Z,66.42
2018-08-25T07:50:32.708Z,66.77
2018-08-25T07:53:01.287Z,67.61
2018-08-25T07:55:29.898Z,67.77
2018-08-25T07:57:58.629Z,66.74
2018-08-25T08:00:27.222Z,66.88
2018-08-25T08:02:55.846Z,67.17
2018-08-25T08:05:24.550Z,68.36
2018-08-25T08:07:53.108Z,68.77
2018-08-25T08:10:21.737Z,69.02
2018-08-25T08:12:50.428Z,69.10
2018-08-25T08:15:18.952Z,69.41
2018-08-25T08:17:47.495Z,68.54
2018-08-25T08:20:16.153Z,68.80
2018-08-25T08:22:44.715Z,68.74
2018-08-25T08:25:13.681Z,69.37
2018-08-25T08:27:42.217Z,68.77
2018-08-25T08:30:10.792Z,69.71
2018-08-25T08:32:39.367Z,69.30
2018-08-25T08:35:08.084Z,68.76
2018-08-25T08:37:36.674Z,68.86
2018-08-25T08:40:05.311Z,70.45
2018-08-25T08:42:34.016Z,70.26
2018-08-25T08:45:02.584Z,70.17
2018-08-25T08:47:31.211Z,69.77
2018-08-25T08:49:59.865Z,69.16
2018-08-25T08:52:28.491Z,68.69
2018-08-25T08:54:57.066Z,68.97
2018-08-25T08:57:25.644Z,69.55
2018-08-25T08:59:54.184Z,69.42
2018-08-25T09:02:22.775Z,68.33
2018-08-25T09:04:51.363Z,67.26
2018-08-25T09:07:20.247Z,67.52
2018-08-25T09:09:48.782Z,66.25
2018-08-25T09:12:17.484Z,67.61
2018-08-25T09:14:46.026Z,67.68
2018-08-25T09:17:14.643Z,65.27
2018-08-25T09:19:43.231Z,65.14
2018-08-25T09:22:12.343Z,65.71
2018-08-25T09:24:41.000Z,64.67
2018-08-25T09:27:09.576Z,64.63
2018-08-25T09:29:38.939Z,64.90
2018-08-25T09:32:07.601Z,63.37
2018-08-25T09:34:36.248Z,63.65
2018-08-25T09:37:05.495Z,63.37
2018-08-25T09:39:34.184Z,64.52
2018-08-25T09:42:02.724Z,63.61
2018-08-25T09:44:31.289Z,63.15
2018-08-25T09:46:59.875Z,63.54
2018-08-25T09:49:28.412Z,64.73
2018-08-25T09:51:56.949Z,62.95
2018-08-25T09:54:25.552Z,61.57
2018-08-25T09:56:54.137Z,61.40
2018-08-25T09:59:22.735Z,60.96
2018-08-25T10:01:57.052Z,59.92
2018-08-25T10:04:25.794Z,59.94
2018-08-25T10:06:54.424Z,59.94
2018-08-25T10:09:23.180Z,59.82
2018-08-25T10:11:51.725Z,58.99
2018-08-25T10:14:20.287Z,58.75
2018-08-25T10:16:49.066Z,60.21
2018-08-25T10:19:17.676Z,59.58
2018-08-25T10:21:46.249Z,59.72
2018-08-25T10:24:14.770Z,60.04
2018-08-25T10:26:43.356Z,59.58
2018-08-25T10:29:11.973Z,59.80
2018-08-25T10:31:40.555Z,60.33
2018-08-25T10:34:09.327Z,59.99
2018-08-25T10:36:38.208Z,59.22
2018-08-25T10:39:09.999Z,59.69
2018-08-25T10:41:38.767Z,60.05
2018-08-25T10:44:07.828Z,59.58
2018-08-25T10:46:37.051Z,59.12
2018-08-25T10:49:05.677Z,59.78
2018-08-25T10:51:34.312Z,60.97
2018-08-25T10:54:02.952Z,59.42
2018-08-25T10:56:31.464Z,60.88
2018-08-25T10:59:00.030Z,60.75
2018-08-25T11:01:28.580Z,60.72
2018-08-25T11:03:57.240Z,60.42
2018-08-25T11:06:25.840Z,59.69
2018-08-25T11:08:54.386Z,59.95
2018-08-25T11:11:22.918Z,58.75
2018-08-25T11:13:51.463Z,59.78
2018-08-25T11:16:20.057Z,60.15
2018-08-25T11:18:48.569Z,59.85
2018-08-25T11:21:17.106Z,59.52
2018-08-25T11:23:45.715Z,59.81
2018-08-25T11:26:14.272Z,59.20
2018-08-25T11:28:42.820Z,59.80
2018-08-25T11:31:11.544Z,59.62
2018-08-25T11:33:40.113Z,59.65
2018-08-25T11:36:08.805Z,58.09
2018-08-25T11:38:37.433Z,57.79
2018-08-25T11:41:06.416Z,58.80
2018-08-25T11:43:35.012Z,58.33
2018-08-25T11:46:03.599Z,57.32
2018-08-25T11:48:32.165Z,56.01
2018-08-25T11:51:01.721Z,57.19
2018-08-25T11:53:30.262Z,56.67
2018-08-25T11:55:58.832Z,56.43
2018-08-25T11:58:27.364Z,55.89
2018-08-25T12:00:55.963Z,55.67
2018-08-25T12:03:24.560Z,56.72
2018-08-25T12:05:53.123Z,55.98
2018-08-25T12:08:21.709Z,56.77
2018-08-25T12:10:50.278Z,56.28
2018-08-25T12:13:18.810Z,56.66
2018-08-25T12:15:47.364Z,56.73
2018-08-25T12:18:15.934Z,57.35
2018-08-25T12:20:44.484Z,56.83
2018-08-25T12:23:13.060Z,56.30
2018-08-25T12:25:41.792Z,56.92
2018-08-25T12:28:10.447Z,57.42
2018-08-25T12:30:39.901Z,57.23
2018-08-25T12:33:08.574Z,56.48
2018-08-25T12:35:37.237Z,57.75
2018-08-25T12:38:05.953Z,57.92
2018-08-25T12:40:35.371Z,57.73
2018-08-25T12:43:04.943Z,57.76
2018-08-25T12:45:33.492Z,56.80
2018-08-25T12:48:02.464Z,56.58
2018-08-25T12:50:31.979Z,56.25
2018-08-25T12:53:00.636Z,56.54
2018-08-25T12:55:29.408Z,56.24
2018-08-25T12:57:58.053Z,56.36
2018-08-25T13:00:26.703Z,56.44
2018-08-25T13:02:55.349Z,55.83
2018-08-25T13:05:24.532Z,54.93
2018-08-25T13:07:53.164Z,55.46
2018-08-25T13:10:21.704Z,55.09
2018-08-25T13:12:50.267Z,55.64
2018-08-25T13:15:18.979Z,55.47
2018-08-25T13:17:48.708Z,55.37
2018-08-25T13:20:17.400Z,54.91
2018-08-25T13:22:47.118Z,53.89
2018-08-25T13:25:15.692Z,54.16
2018-08-25T13:27:44.351Z,55.29
2018-08-25T13:30:13.115Z,56.05
2018-08-25T13:32:41.750Z,56.10
2018-08-25T13:35:10.422Z,55.22
2018-08-25T13:37:38.980Z,54.85
2018-08-25T13:40:07.647Z,55.60
2018-08-25T13:42:36.370Z,55.79
2018-08-25T13:45:05.060Z,55.24
2018-08-25T13:47:34.387Z,56.51
2018-08-25T13:50:03.353Z,55.89
2018-08-25T13:52:32.190Z,56.45
2018-08-25T13:55:01.385Z,56.50
2018-08-25T13:57:30.148Z,56.38
2018-08-25T13:59:58.864Z,56.82
2018-08-25T14:02:27.490Z,56.67
2018-08-25T14:04:56.385Z,57.07
2018-08-25T14:07:26.831Z,56.32
2018-08-25T14:09:55.642Z,57.19
2018-08-25T14:12:24.271Z,56.99
2018-08-25T14:14:53.747Z,58.11
2018-08-25T14:17:22.450Z,58.05
2018-08-25T14:19:51.699Z,58.18
2018-08-25T14:22:20.972Z,57.99
2018-08-25T14:24:49.756Z,57.61
2018-08-25T14:27:18.456Z,57.81
2018-08-25T14:29:47.261Z,57.49
2018-08-25T14:32:16.172Z,57.83
2018-08-25T14:34:45.405Z,57.74
2018-08-25T14:37:15.052Z,58.14
2018-08-25T14:39:44.841Z,58.79
2018-08-25T14:42:13.651Z,57.40
2018-08-25T14:44:42.459Z,58.44
2018-08-25T14:47:11.382Z,58.38
2018-08-25T14:49:40.084Z,58.42
2018-08-25T14:52:08.662Z,58.72
2018-08-25T14:54:37.784Z,58.86
2018-08-25T14:57:06.737Z,58.67
2018-08-25T14:59:35.630Z,59.33
2018-08-25T15:02:04.513Z,59.53
2018-08-25T15:04:33.099Z,59.53
2018-08-25T15:07:01.709Z,59.88
2018-08-25T15:09:30.365Z,60.08
2018-08-25T15:11:59.353Z,60.17
2018-08-25T15:14:28.879Z,60.22
2018-08-25T15:16:57.954Z,59.91
2018-08-25T15:19:26.717Z,60.52
2018-08-25T15:21:55.452Z,60.84
2018-08-25T15:24:24.300Z,60.89
2018-08-25T15:26:53.159Z,60.74
2018-08-25T15:29:21.896Z,61.30
2018-08-25T15:31:51.833Z,60.84
2018-08-25T15:34:20.784Z,60.31
2018-08-25T15:36:50.777Z,60.90
2018-08-25T15:39:19.508Z,60.95
2018-08-25T15:41:48.409Z,60.36
2018-08-25T15:44:17.357Z,60.71
2018-08-25T15:46:47.689Z,60.67
2018-08-25T15:49:17.182Z,61.73
2018-08-25T15:51:46.043Z,61.99
2018-08-25T15:54:15.087Z,61.38
2018-08-25T15:56:43.732Z,61.18
2018-08-25T15:59:12.476Z,60.95
2018-08-25T16:01:41.419Z,61.88
2018-08-25T16:04:10.900Z,62.19
2018-08-25T16:06:39.542Z,62.47
2018-08-25T16:09:10.504Z,63.42
2018-08-25T16:11:39.240Z,63.34
2018-08-25T16:14:07.992Z,63.85
2018-08-25T16:16:36.747Z,63.68
2018-08-25T16:25:11.121Z,65.15
2018-08-25T16:27:39.712Z,65.57
2018-08-25T16:30:08.317Z,67.21
2018-08-25T16:32:36.965Z,67.07
2018-08-25T16:35:05.586Z,66.97
2018-08-25T16:37:34.201Z,67.62
2018-08-25T16:40:02.820Z,68.15
2018-08-25T16:42:31.656Z,68.43
2018-08-25T16:45:00.212Z,69.16
2018-08-25T16:47:28.897Z,68.93
2018-08-25T16:49:57.679Z,69.68
2018-08-25T16:52:26.500Z,69.88
2018-08-25T16:54:55.057Z,71.02
2018-08-25T16:57:23.609Z,70.75
2018-08-25T16:59:52.188Z,70.84
2018-08-25T17:02:20.852Z,71.04
2018-08-25T17:04:49.463Z,71.52
2018-08-25T17:07:18.184Z,70.85
2018-08-25T17:09:46.821Z,71.25
2018-08-25T17:12:15.390Z,71.75
2018-08-25T17:14:44.008Z,71.34
2018-08-25T17:17:12.593Z,71.16
2018-08-25T17:19:41.175Z,72.04
2018-08-25T17:22:10.593Z,71.64
2018-08-25T17:24:39.145Z,72.06
2018-08-25T17:27:07.716Z,72.20
2018-08-25T17:29:36.284Z,72.21
2018-08-25T17:32:05.095Z,72.37
2018-08-25T17:34:33.748Z,71.77
2018-08-25T17:37:02.304Z,72.94
2018-08-25T17:39:30.968Z,72.92
2018-08-25T17:41:59.578Z,73.47
2018-08-25T17:44:28.120Z,74.67
2018-08-25T17:46:56.800Z,74.15
2018-08-25T17:49:25.433Z,74.69
2018-08-25T17:51:54.004Z,75.22
2018-08-25T17:54:22.628Z,74.51
2018-08-25T17:56:51.312Z,74.33
2018-08-25T17:59:20.075Z,74.98
2018-08-25T18:01:48.890Z,75.77
2018-08-25T18:04:17.584Z,75.85
2018-08-25T18:06:46.301Z,75.79
2018-08-25T18:09:15.207Z,75.77
2018-08-25T18:11:44.223Z,75.78
2018-08-25T18:14:12.913Z,75.50
2018-08-25T18:16:41.669Z,75.81
2018-08-25T18:19:10.335Z,75.67
2018-08-25T18:21:38.983Z,75.55
2018-08-25T18:24:07.835Z,75.93
2018-08-25T18:26:37.141Z,76.01
2018-08-25T18:29:06.006Z,75.66
2018-08-25T18:31:35.368Z,76.03
2018-08-25T18:34:04.528Z,75.90
2018-08-25T18:36:34.083Z,75.72
2018-08-25T18:39:03.130Z,76.25
2018-08-25T18:41:31.784Z,75.68
2018-08-25T18:44:00.357Z,75.95
2018-08-25T18:46:29.237Z,76.28
2018-08-25T18:48:57.992Z,76.76
2018-08-25T18:51:26.994Z,76.36
2018-08-25T18:53:56.386Z,76.10
2018-08-25T18:56:25.092Z,76.62
2018-08-25T18:58:53.946Z,76.55
2018-08-25T19:01:22.660Z,76.34
2018-08-25T19:03:51.651Z,76.83
2018-08-25T19:06:20.967Z,77.54
2018-08-25T19:08:50.531Z,77.61
2018-08-25T19:11:19.181Z,78.06
2018-08-25T19:13:48.069Z,77.53
2018-08-25T19:16:17.999Z,76.52
2018-08-25T19:18:46.769Z,76.89
2018-08-25T19:21:16.460Z,77.25
2018-08-25T19:23:45.409Z,77.52
2018-08-25T19:26:13.985Z,77.90
2018-08-25T19:28:42.922Z,77.85
2018-08-25T19:31:11.580Z,77.90
2018-08-25T19:33:40.376Z,77.51
2018-08-25T19:36:09.184Z,77.37
2018-08-25T19:38:38.525Z,77.50
2018-08-25T19:41:07.583Z,77.31
2018-08-25T19:43:36.836Z,77.36
2018-08-25T19:46:05.593Z,77.37
2018-08-25T19:48:34.505Z,77.17
2018-08-25T19:51:03.139Z,76.95
2018-08-25T19:53:32.225Z,77.36
2018-08-25T19:56:00.911Z,77.47
2018-08-25T19:58:29.786Z,77.02
2018-08-25T20:00:58.588Z,77.07
2018-08-25T20:03:27.547Z,77.27
2018-08-25T20:05:56.444Z,77.11
2018-08-25T20:08:25.368Z,77.72
2018-08-25T20:10:54.019Z,78.01
2018-08-25T20:13:22.954Z,77.76
2018-08-25T20:15:51.607Z,77.29
2018-08-25T20:18:20.260Z,77.26
2018-08-25T20:20:48.994Z,76.93
2018-08-25T20:23:17.602Z,75.66
2018-08-25T20:25:46.983Z,75.71
2018-08-25T20:28:16.424Z,75.89
2018-08-25T20:30:45.257Z,75.16
2018-08-25T20:33:14.052Z,76.37
2018-08-25T20:35:42.770Z,76.37
2018-08-25T20:38:12.132Z,76.86
2018-08-25T20:40:40.824Z,77.16
2018-08-25T20:43:09.904Z,77.08
2018-08-25T20:45:38.519Z,77.60
2018-08-25T20:48:07.289Z,76.73
2018-08-25T20:50:36.016Z,76.57
2018-08-25T20:53:05.005Z,75.62
2018-08-25T20:55:33.756Z,76.35
2018-08-25T20:58:02.507Z,77.42
2018-08-25T21:00:31.207Z,77.36
2018-08-25T21:03:00.030Z,77.32
2018-08-25T21:05:30.028Z,77.76
2018-08-25T21:07:58.888Z,78.06
2018-08-25T21:10:28.021Z,78.12
2018-08-25T21:12:56.565Z,77.66
2018-08-25T21:15:25.987Z,78.32
2018-08-25T21:17:55.793Z,78.59
2018-08-25T21:20:24.547Z,78.88
2018-08-25T21:22:54.138Z,78.90
2018-08-25T21:25:22.747Z,79.10
2018-08-25T21:27:51.458Z,78.55
2018-08-25T21:30:20.317Z,78.53
2018-08-25T21:32:49.175Z,77.81
2018-08-25T21:35:17.831Z,77.86
2018-08-25T21:37:46.706Z,77.72
2018-08-25T21:40:16.215Z,77.70
2018-08-25T21:42:44.988Z,77.97
2018-08-25T21:45:13.827Z,78.65
2018-08-25T21:47:42.462Z,78.77
2018-08-25T21:50:12.880Z,77.75
2018-08-25T21:52:41.555Z,78.26
2018-08-25T21:55:10.155Z,78.38
2018-08-25T21:57:39.693Z,78.30
2018-08-25T22:00:08.956Z,78.58
2018-08-25T22:02:38.817Z,78.46
2018-08-25T22:05:08.176Z,78.29
2018-08-25T22:07:37.120Z,77.91
2018-08-25T22:10:06.072Z,78.50
2018-08-25T22:12:35.348Z,77.72
2018-08-25T22:15:03.892Z,78.08
2018-08-25T22:20:31.499Z,77.93
2018-08-25T22:23:01.392Z,78.41
2018-08-25T22:25:30.064Z,78.55
2018-08-25T22:27:59.589Z,78.27
2018-08-25T22:30:28.282Z,78.69
2018-08-25T22:32:57.133Z,78.84
2018-08-25T22:35:25.848Z,78.10
2018-08-25T22:37:54.533Z,78.50
2018-08-25T22:40:24.076Z,78.50
2018-08-25T22:42:52.935Z,78.50
2018-08-25T22:45:21.868Z,77.91
2018-08-25T22:47:51.869Z,78.28
2018-08-25T22:50:20.662Z,78.80
2018-08-25T22:52:51.536Z,79.01
2018-08-25T22:55:22.068Z,79.61
2018-08-25T22:57:51.216Z,78.54
2018-08-25T23:00:20.341Z,78.12
2018-08-25T23:02:49.640Z,78.37
2018-08-25T23:05:18.434Z,78.34
2018-08-25T23:07:47.745Z,78.21
2018-08-25T23:10:16.612Z,78.23
2018-08-25T23:12:45.379Z,78.14
2018-08-25T23:15:14.011Z,78.03
2018-08-25T23:17:42.534Z,78.21
2018-08-25T23:20:11.328Z,78.20
2018-08-25T23:22:40.576Z,77.39
2018-08-25T23:25:09.175Z,77.95
2018-08-25T23:27:38.008Z,78.33
2018-08-25T23:30:06.754Z,77.53
2018-08-25T23:32:35.334Z,77.80
2018-08-25T23:35:04.116Z,78.17
2018-08-25T23:37:32.668Z,77.58
2018-08-25T23:40:02.490Z,78.22
2018-08-25T23:42:31.845Z,78.36
2018-08-25T23:45:00.461Z,78.54
2018-08-25T23:47:29.509Z,78.78
2018-08-25T23:49:58.288Z,78.47
2018-08-25T23:52:26.900Z,79.23
2018-08-25T23:54:56.461Z,79.43
2018-08-25T23:57:25.135Z,79.10
2018-08-25T23:59:54.665Z,78.89
